sensor_id;sensor_type;location;lat;lon;timestamp;temperature;humidity
46123;DHT22;31856;-35.404;149.120;2024-01-16T00:13:53;19.70;71.70
46123;DHT22;31856;-35.404;149.120;2024-01-16T00:16:23;19.80;71.90
46123;DHT22;31856;-35.404;149.120;2024-01-16T00:18:52;19.80;71.90
46123;DHT22;31856;-35.404;149.120;2024-01-16T00:21:22;19.80;71.80
46123;DHT22;31856;-35.404;149.120;2024-01-16T00:23:51;19.80;72.20
46123;DHT22;31856;-35.404;149.120;2024-01-16T00:26:21;19.90;72.10
46123;DHT22;31856;-35.404;149.120;2024-01-16T00:28:51;19.90;72.00
46123;DHT22;31856;-35.404;149.120;2024-01-16T00:31:20;20.00;72.10
46123;DHT22;31856;-35.404;149.120;2024-01-16T00:33:50;19.90;72.00
46123;DHT22;31856;-35.404;149.120;2024-01-16T00:36:19;19.90;71.90
46123;DHT22;31856;-35.404;149.120;2024-01-16T00:38:49;19.90;72.30
46123;DHT22;31856;-35.404;149.120;2024-01-16T00:41:18;19.90;72.60
46123;DHT22;31856;-35.404;149.120;2024-01-16T00:43:48;19.90;72.40
46123;DHT22;31856;-35.404;149.120;2024-01-16T00:46:18;19.90;72.40
46123;DHT22;31856;-35.404;149.120;2024-01-16T00:48:47;19.90;72.70
46123;DHT22;31856;-35.404;149.120;2024-01-16T00:51:17;19.90;72.70
46123;DHT22;31856;-35.404;149.120;2024-01-16T00:53:46;19.90;72.80
46123;DHT22;31856;-35.404;149.120;2024-01-16T00:56:16;19.90;73.00
46123;DHT22;31856;-35.404;149.120;2024-01-16T00:58:45;19.90;72.60
46123;DHT22;31856;-35.404;149.120;2024-01-16T01:01:15;20.00;72.70
46123;DHT22;31856;-35.404;149.120;2024-01-16T01:03:44;20.00;72.80
46123;DHT22;31856;-35.404;149.120;2024-01-16T01:06:14;20.10;72.80
46123;DHT22;31856;-35.404;149.120;2024-01-16T01:08:44;20.10;72.50
46123;DHT22;31856;-35.404;149.120;2024-01-16T01:11:13;20.10;72.80
46123;DHT22;31856;-35.404;149.120;2024-01-16T02:41:19;21.90;67.80
46123;DHT22;31856;-35.404;149.120;2024-01-16T02:43:49;21.90;68.60
46123;DHT22;31856;-35.404;149.120;2024-01-16T02:46:19;21.90;68.10
46123;DHT22;31856;-35.404;149.120;2024-01-16T02:48:49;21.80;67.60
46123;DHT22;31856;-35.404;149.120;2024-01-16T02:51:19;21.70;67.90
46123;DHT22;31856;-35.404;149.120;2024-01-16T02:53:49;21.70;68.40
46123;DHT22;31856;-35.404;149.120;2024-01-16T02:56:19;21.60;68.90
46123;DHT22;31856;-35.404;149.120;2024-01-16T02:58:48;21.60;68.80
46123;DHT22;31856;-35.404;149.120;2024-01-16T03:01:18;21.60;68.90
46123;DHT22;31856;-35.404;149.120;2024-01-16T03:03:48;21.50;69.00
46123;DHT22;31856;-35.404;149.120;2024-01-16T03:06:23;21.50;69.10
46123;DHT22;31856;-35.404;149.120;2024-01-16T03:08:53;21.40;69.40
46123;DHT22;31856;-35.404;149.120;2024-01-16T03:11:23;21.40;69.30
46123;DHT22;31856;-35.404;149.120;2024-01-16T03:13:53;21.30;69.50
46123;DHT22;31856;-35.404;149.120;2024-01-16T03:16:22;21.30;69.70
46123;DHT22;31856;-35.404;149.120;2024-01-16T03:18:52;21.30;70.00
46123;DHT22;31856;-35.404;149.120;2024-01-16T03:21:22;21.30;69.70
46123;DHT22;31856;-35.404;149.120;2024-01-16T03:23:52;21.30;69.80
46123;DHT22;31856;-35.404;149.120;2024-01-16T03:26:22;21.30;70.10
46123;DHT22;31856;-35.404;149.120;2024-01-16T03:28:51;21.30;70.50
46123;DHT22;31856;-35.404;149.120;2024-01-16T03:31:21;21.30;70.40
46123;DHT22;31856;-35.404;149.120;2024-01-16T03:33:50;21.30;70.90
46123;DHT22;31856;-35.404;149.120;2024-01-16T03:36:20;21.30;70.70
46123;DHT22;31856;-35.404;149.120;2024-01-16T03:38:50;21.30;70.70
46123;DHT22;31856;-35.404;149.120;2024-01-16T08:33:50;21.10;78.90
46123;DHT22;31856;-35.404;149.120;2024-01-16T08:36:21;21.10;78.70
46123;DHT22;31856;-35.404;149.120;2024-01-16T08:38:51;21.00;78.80
46123;DHT22;31856;-35.404;149.120;2024-01-16T08:41:21;21.20;78.80
46123;DHT22;31856;-35.404;149.120;2024-01-16T08:43:51;21.20;78.50
46123;DHT22;31856;-35.404;149.120;2024-01-16T08:46:22;21.30;78.30
46123;DHT22;31856;-35.404;149.120;2024-01-16T08:48:51;21.30;78.10
46123;DHT22;31856;-35.404;149.120;2024-01-16T08:51:21;21.30;77.90
46123;DHT22;31856;-35.404;149.120;2024-01-16T08:53:52;21.30;78.10
46123;DHT22;31856;-35.404;149.120;2024-01-16T08:56:21;21.20;78.40
46123;DHT22;31856;-35.404;149.120;2024-01-16T08:58:52;21.10;78.50
46123;DHT22;31856;-35.404;149.120;2024-01-16T09:01:23;21.00;78.60
46123;DHT22;31856;-35.404;149.120;2024-01-16T09:03:53;21.00;78.70
46123;DHT22;31856;-35.404;149.120;2024-01-16T09:06:24;20.90;78.70
46123;DHT22;31856;-35.404;149.120;2024-01-16T09:08:54;20.80;78.80
46123;DHT22;31856;-35.404;149.120;2024-01-16T09:11:25;20.80;79.00
46123;DHT22;31856;-35.404;149.120;2024-01-16T09:13:56;20.80;79.10
46123;DHT22;31856;-35.404;149.120;2024-01-16T09:16:30;20.70;79.50
46123;DHT22;31856;-35.404;149.120;2024-01-16T09:18:59;20.70;79.70
46123;DHT22;31856;-35.404;149.120;2024-01-16T09:21:30;20.60;79.60
46123;DHT22;31856;-35.404;149.120;2024-01-16T09:24:00;20.50;80.10
46123;DHT22;31856;-35.404;149.120;2024-01-16T09:26:31;20.50;80.20
46123;DHT22;31856;-35.404;149.120;2024-01-16T09:29:01;20.50;80.40
46123;DHT22;31856;-35.404;149.120;2024-01-16T09:31:31;20.40;80.60
46123;DHT22;31856;-35.404;149.120;2024-01-16T09:34:00;20.40;80.70
46123;DHT22;31856;-35.404;149.120;2024-01-16T09:36:36;20.30;81.00
46123;DHT22;31856;-35.404;149.120;2024-01-16T09:39:06;20.30;81.20
46123;DHT22;31856;-35.404;149.120;2024-01-16T09:41:54;20.30;81.20
46123;DHT22;31856;-35.404;149.120;2024-01-16T09:44:25;20.20;81.20
46123;DHT22;31856;-35.404;149.120;2024-01-16T09:46:55;20.20;81.50
46123;DHT22;31856;-35.404;149.120;2024-01-16T09:49:27;20.20;81.80
46123;DHT22;31856;-35.404;149.120;2024-01-16T09:51:58;20.10;81.90
46123;DHT22;31856;-35.404;149.120;2024-01-16T09:54:30;20.00;81.80
46123;DHT22;31856;-35.404;149.120;2024-01-16T09:56:59;20.10;81.80
46123;DHT22;31856;-35.404;149.120;2024-01-16T09:59:33;20.10;81.80
46123;DHT22;31856;-35.404;149.120;2024-01-16T10:02:05;20.00;81.80
46123;DHT22;31856;-35.404;149.120;2024-01-16T10:04:35;20.00;81.80
46123;DHT22;31856;-35.404;149.120;2024-01-16T10:07:06;20.00;81.70
46123;DHT22;31856;-35.404;149.120;2024-01-16T10:09:38;19.90;81.60
46123;DHT22;31856;-35.404;149.120;2024-01-16T10:12:08;19.90;81.70
46123;DHT22;31856;-35.404;149.120;2024-01-16T10:14:38;19.80;82.00
46123;DHT22;31856;-35.404;149.120;2024-01-16T10:17:09;19.80;82.20
46123;DHT22;31856;-35.404;149.120;2024-01-16T10:19:51;19.80;82.20
46123;DHT22;31856;-35.404;149.120;2024-01-16T10:22:24;19.80;82.10
46123;DHT22;31856;-35.404;149.120;2024-01-16T10:25:15;19.80;82.00
46123;DHT22;31856;-35.404;149.120;2024-01-16T10:27:49;19.80;82.20
46123;DHT22;31856;-35.404;149.120;2024-01-16T11:01:21;19.30;83.00
46123;DHT22;31856;-35.404;149.120;2024-01-16T11:03:51;19.20;82.90
46123;DHT22;31856;-35.404;149.120;2024-01-16T11:06:22;19.10;82.80
46123;DHT22;31856;-35.404;149.120;2024-01-16T11:08:54;19.10;82.80
46123;DHT22;31856;-35.404;149.120;2024-01-16T11:11:25;19.00;82.70
46123;DHT22;31856;-35.404;149.120;2024-01-16T11:13:56;19.00;82.80
46123;DHT22;31856;-35.404;149.120;2024-01-16T11:16:26;19.00;82.70
46123;DHT22;31856;-35.404;149.120;2024-01-16T11:18:56;19.00;82.50
46123;DHT22;31856;-35.404;149.120;2024-01-16T11:21:46;18.90;82.60
46123;DHT22;31856;-35.404;149.120;2024-01-16T11:24:17;18.90;82.70
46123;DHT22;31856;-35.404;149.120;2024-01-16T11:26:47;18.80;82.60
46123;DHT22;31856;-35.404;149.120;2024-01-16T11:31:57;18.80;82.70
46123;DHT22;31856;-35.404;149.120;2024-01-16T11:37:24;18.70;82.70
46123;DHT22;31856;-35.404;149.120;2024-01-16T11:40:29;18.70;82.50
46123;DHT22;31856;-35.404;149.120;2024-01-16T11:42:52;18.70;82.60
46123;DHT22;31856;-35.404;149.120;2024-01-16T11:48:13;18.40;82.80
46123;DHT22;31856;-35.404;149.120;2024-01-16T11:50:44;18.40;82.90
46123;DHT22;31856;-35.404;149.120;2024-01-16T11:53:32;18.40;82.90
46123;DHT22;31856;-35.404;149.120;2024-01-16T11:56:23;18.40;82.80
46123;DHT22;31856;-35.404;149.120;2024-01-16T20:12:09;18.40;87.00
46123;DHT22;31856;-35.404;149.120;2024-01-16T20:14:40;18.50;87.20
46123;DHT22;31856;-35.404;149.120;2024-01-16T20:17:10;18.50;87.30
46123;DHT22;31856;-35.404;149.120;2024-01-16T20:19:40;18.50;87.20
46123;DHT22;31856;-35.404;149.120;2024-01-16T20:22:10;18.50;87.00
46123;DHT22;31856;-35.404;149.120;2024-01-16T20:24:39;18.60;86.90
46123;DHT22;31856;-35.404;149.120;2024-01-16T20:27:09;18.50;86.80
46123;DHT22;31856;-35.404;149.120;2024-01-16T20:29:38;18.60;86.70
46123;DHT22;31856;-35.404;149.120;2024-01-16T20:32:08;18.60;86.60
46123;DHT22;31856;-35.404;149.120;2024-01-16T20:34:42;18.70;86.70
46123;DHT22;31856;-35.404;149.120;2024-01-16T20:37:14;18.70;86.60
46123;DHT22;31856;-35.404;149.120;2024-01-16T20:39:43;18.70;86.50
46123;DHT22;31856;-35.404;149.120;2024-01-16T20:42:13;18.70;86.40
46123;DHT22;31856;-35.404;149.120;2024-01-16T20:44:43;18.80;86.40
46123;DHT22;31856;-35.404;149.120;2024-01-16T20:47:13;18.80;86.10
46123;DHT22;31856;-35.404;149.120;2024-01-16T20:49:45;18.80;86.00
46123;DHT22;31856;-35.404;149.120;2024-01-16T20:52:18;18.80;86.00
46123;DHT22;31856;-35.404;149.120;2024-01-16T20:54:50;18.80;85.80
46123;DHT22;31856;-35.404;149.120;2024-01-16T20:57:20;18.90;85.80
46123;DHT22;31856;-35.404;149.120;2024-01-16T20:59:49;18.90;85.50
46123;DHT22;31856;-35.404;149.120;2024-01-16T21:02:19;18.90;85.70
46123;DHT22;31856;-35.404;149.120;2024-01-16T21:04:49;19.00;85.60
46123;DHT22;31856;-35.404;149.120;2024-01-16T21:07:19;19.00;85.70
46123;DHT22;31856;-35.404;149.120;2024-01-16T21:09:52;19.10;86.00
